AGC weather

Allegheny County Airport
Pittsburgh, Pennsylvania, United States

Public forecast

Using degrees Fahrenheit for public forecast. Weather courtesy of forecast.io.

METAR (pilot weather report)

Retrieved 2019/05/21 07:17 UTC (42 minutes ago):

KAGC 210717Z 35008KT 10SM BKN027 OVC033 11/05 A3005 RMK AO2 T01060050

TAF (pilot weather forecast)

Retrieved 2019/05/21 06:24 UTC (2 hours ago):

TAF KAGC 210520Z 2106/2206 33008KT P6SM OVC035 FM210900 34008KT P6SM BKN250 FM220300 04005KT P6SM BKN150